createdAt,value
2018-12-11T00:02:33.987Z,5.98
2018-12-11T00:05:10.564Z,5.96
2018-12-11T00:07:48.243Z,5.94
2018-12-11T00:10:35.407Z,5.94
2018-12-11T00:13:08.298Z,5.97
2018-12-11T00:15:45.454Z,5.89
2018-12-11T00:18:26.297Z,5.86
2018-12-11T00:21:00.411Z,5.87
2018-12-11T00:23:35.850Z,5.88
2018-12-11T00:26:19.385Z,5.89
2018-12-11T00:28:57.270Z,5.90
2018-12-11T00:31:40.043Z,5.87
2018-12-11T00:34:16.942Z,5.89
2018-12-11T00:36:53.922Z,5.83
2018-12-11T00:39:34.996Z,5.75
2018-12-11T00:42:21.929Z,5.60
2018-12-11T00:44:56.828Z,5.72
2018-12-11T00:47:40.125Z,5.71
2018-12-11T00:50:21.341Z,5.67
2018-12-11T00:52:58.779Z,5.59
2018-12-11T00:55:34.727Z,5.61
2018-12-11T00:58:09.114Z,5.59
2018-12-11T01:00:46.878Z,5.70
2018-12-11T01:03:24.812Z,5.68
2018-12-11T01:06:03.215Z,5.54
2018-12-11T01:08:37.283Z,5.62
2018-12-11T01:11:12.220Z,5.56
2018-12-11T01:13:56.293Z,5.48
2018-12-11T01:16:35.854Z,5.47
2018-12-11T01:22:34.117Z,5.60
2018-12-11T01:25:19.054Z,5.63
2018-12-11T01:28:09.867Z,5.50
2018-12-11T01:30:45.964Z,5.54
2018-12-11T01:33:26.587Z,5.54
2018-12-11T01:36:04.772Z,5.42
2018-12-11T01:42:14.595Z,5.50
2018-12-11T01:44:52.730Z,5.40
2018-12-11T01:47:30.673Z,5.32
2018-12-11T01:50:09.508Z,5.44
2018-12-11T01:53:06.220Z,5.42
2018-12-11T01:55:42.154Z,5.36
2018-12-11T01:58:22.464Z,5.38
2018-12-11T02:00:58.083Z,5.23
2018-12-11T02:03:35.838Z,5.26
2018-12-11T02:06:11.588Z,5.27
2018-12-11T02:08:53.844Z,5.34
2018-12-11T02:11:39.332Z,5.16
2018-12-11T02:14:17.610Z,5.20
2018-12-11T02:16:54.943Z,5.31
2018-12-11T02:19:31.528Z,5.21
2018-12-11T02:22:13.733Z,5.20
2018-12-11T02:24:53.040Z,5.20
2018-12-11T02:27:31.270Z,5.14
2018-12-11T02:30:08.958Z,5.01
2018-12-11T02:32:52.492Z,5.06
2018-12-11T02:35:31.478Z,5.10
2018-12-11T02:38:08.052Z,5.02
2018-12-11T02:40:57.211Z,5.02
2018-12-11T02:43:33.818Z,5.05
2018-12-11T02:46:10.111Z,4.91
2018-12-11T02:48:48.361Z,5.04
2018-12-11T02:51:26.256Z,5.04
2018-12-11T02:54:00.915Z,4.82
2018-12-11T02:56:37.617Z,4.93
2018-12-11T02:59:14.391Z,4.87
2018-12-11T03:01:54.420Z,4.87
2018-12-11T03:04:35.715Z,4.86
2018-12-11T03:07:11.901Z,4.75
2018-12-11T03:09:48.841Z,4.81
2018-12-11T03:12:24.186Z,4.83
2018-12-11T03:15:00.267Z,4.86
2018-12-11T03:17:37.952Z,4.77
2018-12-11T03:20:15.041Z,4.83
2018-12-11T03:22:51.452Z,4.84
2018-12-11T03:25:28.297Z,4.84
2018-12-11T03:28:03.985Z,4.75
2018-12-11T03:30:39.166Z,4.80
2018-12-11T03:33:16.814Z,4.79
2018-12-11T03:35:56.216Z,4.76
2018-12-11T03:38:51.621Z,4.76
2018-12-11T03:41:33.396Z,4.83
2018-12-11T03:44:11.814Z,4.86
2018-12-11T03:46:48.300Z,4.89
2018-12-11T03:49:19.713Z,4.83
2018-12-11T03:51:51.142Z,4.92
2018-12-11T03:54:21.876Z,4.87
2018-12-11T03:56:52.458Z,4.79
2018-12-11T03:59:23.195Z,4.73
2018-12-11T04:01:54.110Z,4.77
2018-12-11T04:04:30.956Z,4.80
2018-12-11T04:07:04.304Z,4.80
2018-12-11T04:13:53.268Z,4.73
2018-12-11T04:16:29.921Z,4.71
2018-12-11T04:19:06.153Z,4.79
2018-12-11T04:21:41.655Z,4.84
2018-12-11T04:24:13.651Z,4.87
2018-12-11T04:26:52.569Z,4.87
2018-12-11T04:29:26.568Z,4.84
2018-12-11T04:32:00.828Z,4.92
2018-12-11T04:34:36.990Z,4.90
2018-12-11T04:37:19.884Z,4.92
2018-12-11T04:39:53.775Z,4.85
2018-12-11T04:42:37.886Z,4.92
2018-12-11T04:45:24.792Z,4.98
2018-12-11T04:48:04.524Z,4.98
2018-12-11T04:50:42.526Z,5.07
2018-12-11T04:53:24.135Z,4.98
2018-12-11T04:56:07.594Z,4.98
2018-12-11T04:58:46.052Z,4.96
2018-12-11T05:01:22.668Z,4.96
2018-12-11T05:03:59.570Z,4.92
2018-12-11T05:06:51.387Z,4.94
2018-12-11T05:09:34.430Z,4.84
2018-12-11T05:12:15.321Z,4.83
2018-12-11T05:14:59.494Z,4.98
2018-12-11T05:17:41.079Z,4.96
2018-12-11T05:20:36.326Z,4.86
2018-12-11T05:23:20.548Z,4.88
2018-12-11T05:26:00.593Z,4.92
2018-12-11T05:28:46.606Z,4.86
2018-12-11T05:34:41.113Z,4.83
2018-12-11T05:37:21.999Z,4.87
2018-12-11T05:40:05.355Z,4.89
2018-12-11T06:01:33.814Z,5.03
2018-12-11T06:04:16.138Z,5.07
2018-12-11T06:06:56.513Z,5.00
2018-12-11T06:09:53.719Z,5.11
2018-12-11T06:12:36.949Z,5.13
2018-12-11T06:15:16.433Z,5.18
2018-12-11T06:18:00.435Z,5.21
2018-12-11T06:20:41.094Z,5.23
2018-12-11T06:23:18.000Z,5.17
2018-12-11T06:25:56.145Z,5.22
2018-12-11T06:28:36.271Z,5.23
2018-12-11T06:31:14.321Z,5.24
2018-12-11T06:33:53.393Z,5.22
2018-12-11T06:39:36.304Z,5.22
2018-12-11T06:42:13.487Z,5.12
2018-12-11T06:44:50.274Z,5.13
2018-12-11T06:47:35.962Z,5.20
2018-12-11T06:50:26.852Z,5.19
2018-12-11T06:53:13.912Z,5.18
2018-12-11T06:56:08.906Z,5.22
2018-12-11T06:58:48.125Z,5.10
2018-12-11T07:01:31.962Z,5.08
2018-12-11T07:09:50.017Z,5.16
2018-12-11T07:12:31.841Z,5.13
2018-12-11T07:15:10.654Z,5.16
2018-12-11T07:17:50.201Z,5.18
2018-12-11T07:20:31.419Z,5.11
2018-12-11T07:23:10.084Z,5.16
2018-12-11T07:25:55.301Z,5.17
2018-12-11T07:31:14.814Z,5.20
2018-12-11T07:33:52.960Z,5.12
2018-12-11T07:36:33.307Z,5.20
2018-12-11T07:39:09.921Z,5.19
2018-12-11T07:41:55.060Z,5.25
2018-12-11T07:44:32.101Z,5.14
2018-12-11T07:47:14.685Z,5.15
2018-12-11T07:49:50.822Z,5.20
2018-12-11T07:52:34.065Z,5.32
2018-12-11T07:55:13.900Z,5.15
2018-12-11T07:57:55.029Z,5.26
2018-12-11T08:00:33.619Z,5.16
2018-12-11T08:03:30.567Z,5.15
2018-12-11T08:06:14.833Z,5.21
2018-12-11T08:08:56.907Z,5.23
2018-12-11T08:11:41.962Z,5.13
2018-12-11T08:14:27.312Z,5.11
2018-12-11T08:17:17.439Z,4.99
2018-12-11T08:19:58.102Z,5.04
2018-12-11T08:25:51.371Z,5.17
2018-12-11T08:28:32.495Z,5.03
2018-12-11T08:31:11.656Z,4.97
2018-12-11T08:33:51.223Z,5.08
2018-12-11T08:36:33.748Z,5.04
2018-12-11T08:39:16.117Z,5.19
2018-12-11T08:42:07.575Z,5.13
2018-12-11T08:48:15.625Z,5.27
2018-12-11T08:51:04.981Z,5.21
2018-12-11T08:53:53.007Z,5.18
2018-12-11T08:56:50.589Z,5.20
2018-12-11T08:59:35.390Z,5.15
2018-12-11T09:02:30.946Z,5.23
2018-12-11T09:05:22.141Z,5.28
2018-12-11T09:11:13.563Z,5.27
2018-12-11T09:13:57.059Z,5.29
2018-12-11T09:16:50.014Z,5.21
2018-12-11T09:19:40.546Z,5.25
2018-12-11T09:22:27.716Z,5.23
2018-12-11T09:28:17.100Z,5.31
2018-12-11T09:31:15.048Z,5.28
2018-12-11T09:34:00.294Z,5.31
2018-12-11T09:36:50.228Z,5.31
2018-12-11T10:02:54.499Z,5.53
2018-12-11T10:09:00.735Z,5.54
2018-12-11T10:17:58.544Z,5.67
2018-12-11T10:20:48.215Z,5.82
2018-12-11T10:26:54.835Z,5.84
2018-12-11T10:29:56.481Z,5.96
2018-12-11T10:32:36.156Z,5.99
2018-12-11T10:35:14.502Z,6.00
2018-12-11T10:37:59.040Z,6.05
2018-12-11T10:53:22.327Z,6.23
2018-12-11T10:56:17.315Z,6.13
2018-12-11T10:58:59.726Z,6.27
2018-12-11T11:04:55.649Z,6.31
2018-12-11T11:07:33.653Z,6.26
2018-12-11T11:10:16.444Z,6.23
2018-12-11T11:12:53.126Z,6.18
2018-12-11T11:15:34.396Z,6.24
2018-12-11T11:18:30.211Z,6.28
2018-12-11T11:21:07.148Z,6.20
2018-12-11T11:23:58.884Z,6.18
2018-12-11T11:29:57.787Z,6.23
2018-12-11T11:32:53.115Z,6.25
2018-12-11T11:35:34.906Z,6.33
2018-12-11T11:38:24.160Z,6.27
2018-12-11T11:44:19.345Z,6.33
2018-12-11T11:47:09.584Z,6.44
2018-12-11T11:49:44.929Z,6.58
2018-12-11T11:52:23.882Z,6.53
2018-12-11T11:55:19.587Z,6.68
2018-12-11T12:01:14.502Z,6.65
2018-12-11T12:03:58.386Z,6.58
2018-12-11T12:06:33.969Z,6.46
2018-12-11T12:09:18.687Z,6.46
2018-12-11T21:32:45.659Z,6.14
2018-12-11T21:35:28.972Z,6.25
2018-12-11T21:38:06.896Z,6.32
2018-12-11T21:40:56.433Z,6.37
2018-12-11T21:46:51.043Z,6.49
2018-12-11T21:49:28.003Z,6.47
2018-12-11T21:52:23.526Z,6.48
2018-12-11T21:55:08.122Z,6.45
2018-12-11T21:57:41.982Z,6.41
2018-12-11T22:00:25.790Z,6.43
2018-12-11T22:03:07.529Z,6.41
2018-12-11T22:05:58.751Z,6.49
2018-12-11T22:08:38.319Z,6.43
2018-12-11T22:14:28.377Z,6.41
2018-12-11T22:17:00.461Z,6.30
2018-12-11T22:19:37.445Z,6.21
2018-12-11T22:22:27.142Z,6.24
2018-12-11T22:25:10.455Z,6.26
2018-12-11T22:27:47.851Z,6.28
2018-12-11T22:30:25.256Z,6.27
2018-12-11T22:36:17.762Z,6.24
2018-12-11T22:41:59.993Z,6.34
2018-12-11T22:44:41.781Z,6.33
2018-12-11T22:47:20.339Z,6.27
2018-12-11T22:49:57.484Z,6.23
2018-12-11T22:59:15.722Z,6.33
2018-12-11T23:01:46.681Z,6.31
2018-12-11T23:04:29.890Z,6.32
2018-12-11T23:07:19.366Z,6.27
2018-12-11T23:10:16.778Z,6.28
2018-12-11T23:12:49.439Z,6.34
2018-12-11T23:18:28.094Z,6.30
2018-12-11T23:21:06.388Z,6.30
2018-12-11T23:23:47.673Z,6.28
2018-12-11T23:26:22.309Z,6.23
2018-12-11T23:28:59.195Z,6.28
2018-12-11T23:31:44.371Z,6.28
2018-12-11T23:34:15.409Z,6.26
2018-12-11T23:37:11.308Z,6.22
2018-12-11T23:39:54.637Z,6.26
2018-12-11T23:42:44.049Z,6.25
2018-12-11T23:45:20.890Z,6.24
